createdAt,value
2018-11-01T00:00:20.070Z,99294.00
2018-11-01T00:02:50.039Z,99300.00
2018-11-01T00:05:19.281Z,99307.00
2018-11-01T00:07:48.440Z,99301.00
2018-11-01T00:10:17.593Z,99303.00
2018-11-01T00:12:46.798Z,99293.00
2018-11-01T00:15:16.482Z,99298.00
2018-11-01T00:17:45.717Z,99295.00
2018-11-01T00:20:15.215Z,99284.00
2018-11-01T00:22:45.425Z,99282.00
2018-11-01T00:25:15.105Z,99281.00
2018-11-01T00:27:44.556Z,99283.00
2018-11-01T00:30:13.662Z,99269.00
2018-11-01T00:32:42.735Z,99270.00
2018-11-01T00:35:11.873Z,99277.00
2018-11-01T00:37:41.545Z,99290.00
2018-11-01T00:40:13.630Z,99300.00
2018-11-01T00:42:44.268Z,99301.00
2018-11-01T00:45:14.381Z,99298.00
2018-11-01T00:47:43.535Z,99291.00
2018-11-01T00:50:13.916Z,99303.00
2018-11-01T00:52:43.924Z,99295.00
2018-11-01T00:55:13.791Z,99286.00
2018-11-01T00:57:43.323Z,99290.00
2018-11-01T01:00:14.689Z,99286.00
2018-11-01T01:02:43.873Z,99284.00
2018-11-01T01:05:13.388Z,99276.00
2018-11-01T01:07:42.471Z,99270.00
2018-11-01T01:10:15.057Z,99261.00
2018-11-01T01:12:45.022Z,99260.00
2018-11-01T01:15:14.294Z,99251.00
2018-11-01T01:17:43.478Z,99267.00
2018-11-01T01:20:15.464Z,99269.00
2018-11-01T01:22:46.803Z,99258.00
2018-11-01T01:25:17.356Z,99257.00
2018-11-01T01:27:46.433Z,99252.00
2018-11-01T01:30:19.309Z,99242.00
2018-11-01T01:32:50.082Z,99240.00
2018-11-01T01:35:19.426Z,99262.00
2018-11-01T01:37:48.525Z,99280.00
2018-11-01T01:40:17.942Z,99271.00
2018-11-01T01:42:52.171Z,99299.00
2018-11-01T01:45:21.972Z,99303.00
2018-11-01T01:47:51.569Z,99286.00
2018-11-01T01:50:21.402Z,99301.00
2018-11-01T01:52:50.913Z,99300.00
2018-11-01T01:55:20.130Z,99292.00
2018-11-01T01:57:49.513Z,99291.00
2018-11-01T02:00:20.078Z,99293.00
2018-11-01T02:02:51.830Z,99305.00
2018-11-01T02:05:24.582Z,99301.00
2018-11-01T02:07:54.416Z,99304.00
2018-11-01T02:10:25.813Z,99295.00
2018-11-01T02:12:55.789Z,99285.00
2018-11-01T02:15:24.882Z,99277.00
2018-11-01T02:17:54.156Z,99272.00
2018-11-01T02:20:23.501Z,99256.00
2018-11-01T02:22:53.089Z,99252.00
2018-11-01T02:25:24.300Z,99256.00
2018-11-01T02:28:00.120Z,99253.00
2018-11-01T02:30:29.492Z,99240.00
2018-11-01T02:32:58.632Z,99240.00
2018-11-01T02:35:28.673Z,99241.00
2018-11-01T02:37:58.893Z,99231.00
2018-11-01T02:40:28.395Z,99221.00
2018-11-01T02:42:57.720Z,99228.00
2018-11-01T02:45:26.912Z,99226.00
2018-11-01T02:47:56.081Z,99225.00
2018-11-01T02:50:25.269Z,99228.00
2018-11-01T02:52:54.486Z,99224.00
2018-11-01T02:55:23.983Z,99220.00
2018-11-01T02:57:53.131Z,99226.00
2018-11-01T03:00:22.194Z,99230.00
2018-11-01T03:02:51.415Z,99229.00
2018-11-01T03:05:20.597Z,99227.00
2018-11-01T03:07:49.908Z,99218.00
2018-11-01T03:10:19.153Z,99211.00
2018-11-01T03:12:48.404Z,99210.00
2018-11-01T03:15:17.766Z,99212.00
2018-11-01T03:17:47.892Z,99221.00
2018-11-01T03:20:17.146Z,99216.00
2018-11-01T03:22:46.413Z,99219.00
2018-11-01T03:25:15.628Z,99215.00
2018-11-01T03:27:44.698Z,99214.00
2018-11-01T03:30:15.355Z,99216.00
2018-11-01T03:32:44.586Z,99222.00
2018-11-01T03:35:13.949Z,99216.00
2018-11-01T03:37:43.209Z,99218.00
2018-11-01T03:40:13.294Z,99219.00
2018-11-01T03:42:42.930Z,99218.00
2018-11-01T03:45:13.873Z,99217.00
2018-11-01T03:47:43.329Z,99225.00
2018-11-01T03:50:12.956Z,99228.00
2018-11-01T03:52:42.188Z,99222.00
2018-11-01T03:55:12.402Z,99223.00
2018-11-01T03:57:43.004Z,99212.00
2018-11-01T04:00:14.908Z,99218.00
2018-11-01T04:02:45.911Z,99215.00
2018-11-01T04:05:15.027Z,99212.00
2018-11-01T04:07:44.288Z,99202.00
2018-11-01T04:10:13.581Z,99193.00
2018-11-01T04:12:42.854Z,99184.00
2018-11-01T04:15:13.638Z,99184.00
2018-11-01T04:17:43.585Z,99188.00
2018-11-01T04:20:13.907Z,99190.00
2018-11-01T04:22:43.565Z,99190.00
2018-11-01T04:25:14.300Z,99195.00
2018-11-01T04:27:44.227Z,99185.00
2018-11-01T04:30:14.015Z,99182.00
2018-11-01T04:32:43.392Z,99180.00
2018-11-01T04:35:12.947Z,99175.00
2018-11-01T04:37:42.560Z,99170.00
2018-11-01T04:40:12.003Z,99181.00
2018-11-01T04:42:42.673Z,99171.00
2018-11-01T04:45:13.126Z,99163.00
2018-11-01T04:47:42.510Z,99150.00
2018-11-01T04:50:12.657Z,99136.00
2018-11-01T04:52:44.234Z,99137.00
2018-11-01T04:55:13.541Z,99141.00
2018-11-01T04:57:42.854Z,99148.00
2018-11-01T05:00:13.930Z,99140.00
2018-11-01T05:02:44.017Z,99141.00
2018-11-01T05:05:13.784Z,99133.00
2018-11-01T05:07:42.686Z,99151.00
2018-11-01T05:10:13.917Z,99155.00
2018-11-01T05:12:43.534Z,99157.00
2018-11-01T05:15:12.684Z,99153.00
2018-11-01T05:17:42.112Z,99149.00
2018-11-01T05:20:12.927Z,99157.00
2018-11-01T05:22:45.013Z,99157.00
2018-11-01T05:25:15.159Z,99159.00
2018-11-01T05:27:46.282Z,99165.00
2018-11-01T05:32:52.968Z,99172.00
2018-11-01T05:35:22.003Z,99170.00
2018-11-01T05:37:52.231Z,99164.00
2018-11-01T05:40:21.777Z,99169.00
2018-11-01T05:42:54.437Z,99171.00
2018-11-01T05:45:24.104Z,99179.00
2018-11-01T05:47:53.340Z,99179.00
2018-11-01T05:50:24.178Z,99182.00
2018-11-01T05:52:54.397Z,99185.00
2018-11-01T05:55:23.629Z,99192.00
2018-11-01T05:57:53.225Z,99201.00
2018-11-01T06:00:22.796Z,99200.00
2018-11-01T06:02:51.889Z,99192.00
2018-11-01T06:05:21.535Z,99192.00
2018-11-01T06:07:56.347Z,99186.00
2018-11-01T06:10:25.556Z,99182.00
2018-11-01T06:12:54.999Z,99192.00
2018-11-01T06:15:24.933Z,99197.00
2018-11-01T06:17:54.648Z,99195.00
2018-11-01T06:20:24.301Z,99185.00
2018-11-01T06:22:53.757Z,99190.00
2018-11-01T06:25:23.467Z,99192.00
2018-11-01T06:27:52.533Z,99201.00
2018-11-01T06:30:21.942Z,99208.00
2018-11-01T06:32:51.137Z,99215.00
2018-11-01T06:35:25.367Z,99203.00
2018-11-01T06:37:54.966Z,99196.00
2018-11-01T06:40:24.438Z,99195.00
2018-11-01T06:42:53.923Z,99202.00
2018-11-01T06:45:23.706Z,99215.00
2018-11-01T06:47:53.064Z,99220.00
2018-11-01T06:50:22.952Z,99220.00
2018-11-01T06:52:52.816Z,99220.00
2018-11-01T06:55:21.852Z,99231.00
2018-11-01T06:57:51.429Z,99237.00
2018-11-01T07:00:21.129Z,99245.00
2018-11-01T07:02:50.793Z,99265.00
2018-11-01T07:05:19.991Z,99281.00
2018-11-01T07:07:49.651Z,99282.00
2018-11-01T07:10:19.529Z,99276.00
2018-11-01T07:12:49.450Z,99281.00
2018-11-01T07:15:19.216Z,99276.00
2018-11-01T07:17:49.257Z,99281.00
2018-11-01T07:20:19.148Z,99286.00
2018-11-01T07:22:49.269Z,99274.00
2018-11-01T07:25:19.150Z,99258.00
2018-11-01T07:27:48.999Z,99244.00
2018-11-01T07:30:19.013Z,99236.00
2018-11-01T07:32:48.183Z,99231.00
2018-11-01T07:35:17.423Z,99225.00
2018-11-01T07:37:47.251Z,99222.00
2018-11-01T07:40:17.953Z,99211.00
2018-11-01T07:42:47.415Z,99203.00
2018-11-01T07:45:16.465Z,99194.00
2018-11-01T07:47:45.987Z,99186.00
2018-11-01T07:50:16.315Z,99183.00
2018-11-01T07:52:47.113Z,99175.00
2018-11-01T07:55:16.515Z,99168.00
2018-11-01T07:57:45.960Z,99160.00
2018-11-01T08:00:17.946Z,99150.00
2018-11-01T08:02:48.115Z,99144.00
2018-11-01T08:05:18.055Z,99141.00
2018-11-01T08:07:48.136Z,99147.00
2018-11-01T08:10:18.885Z,99146.00
2018-11-01T08:12:48.996Z,99140.00
2018-11-01T08:15:19.636Z,99144.00
2018-11-01T08:17:48.667Z,99141.00
2018-11-01T08:20:18.275Z,99143.00
2018-11-01T08:22:47.755Z,99142.00
2018-11-01T08:25:17.609Z,99143.00
2018-11-01T08:27:48.255Z,99147.00
2018-11-01T08:30:18.598Z,99147.00
2018-11-01T08:32:48.060Z,99139.00
2018-11-01T08:35:17.093Z,99137.00
2018-11-01T08:37:46.936Z,99147.00
2018-11-01T08:40:17.457Z,99148.00
2018-11-01T08:42:46.547Z,99159.00
2018-11-01T08:45:16.747Z,99166.00
2018-11-01T08:47:46.044Z,99168.00
2018-11-01T08:50:16.269Z,99169.00
2018-11-01T08:52:46.307Z,99175.00
2018-11-01T08:55:15.680Z,99175.00
2018-11-01T08:57:45.708Z,99173.00
2018-11-01T09:00:15.348Z,99168.00
2018-11-01T09:02:44.977Z,99162.00
2018-11-01T09:05:14.461Z,99175.00
2018-11-01T09:07:45.230Z,99190.00
2018-11-01T09:10:16.513Z,99196.00
2018-11-01T09:12:46.523Z,99192.00
2018-11-01T09:15:17.188Z,99183.00
2018-11-01T09:17:46.265Z,99180.00
2018-11-01T09:20:15.989Z,99183.00
2018-11-01T09:22:45.501Z,99188.00
2018-11-01T09:25:15.061Z,99181.00
2018-11-01T09:27:44.929Z,99183.00
2018-11-01T09:30:15.436Z,99194.00
2018-11-01T09:32:45.344Z,99190.00
2018-11-01T09:35:15.054Z,99187.00
2018-11-01T09:37:44.413Z,99187.00
2018-11-01T09:40:15.045Z,99184.00
2018-11-01T09:42:45.207Z,99188.00
2018-11-01T09:45:14.835Z,99198.00
2018-11-01T09:47:44.334Z,99210.00
2018-11-01T09:50:13.571Z,99206.00
2018-11-01T09:52:42.771Z,99207.00
2018-11-01T09:55:12.752Z,99202.00
2018-11-01T09:57:42.836Z,99206.00
2018-11-01T10:00:13.703Z,99198.00
2018-11-01T10:02:43.539Z,99195.00
2018-11-01T10:05:12.925Z,99191.00
2018-11-01T10:07:42.226Z,99186.00
2018-11-01T10:10:13.127Z,99186.00
2018-11-01T10:12:42.475Z,99182.00
2018-11-01T10:15:12.519Z,99181.00
2018-11-01T10:17:42.445Z,99179.00
2018-11-01T10:20:13.384Z,99183.00
2018-11-01T10:22:43.302Z,99175.00
2018-11-01T10:25:14.712Z,99173.00
2018-11-01T10:27:43.952Z,99169.00
2018-11-01T10:30:18.813Z,99167.00
2018-11-01T10:32:48.942Z,99180.00
2018-11-01T10:35:19.090Z,99183.00
2018-11-01T10:37:49.336Z,99184.00
2018-11-01T10:40:19.620Z,99178.00
2018-11-01T10:42:50.893Z,99179.00
2018-11-01T10:45:20.561Z,99174.00
2018-11-01T10:50:27.355Z,99158.00
2018-11-01T10:52:57.084Z,99164.00
2018-11-01T10:55:26.524Z,99151.00
2018-11-01T10:57:55.924Z,99155.00
2018-11-01T11:00:30.429Z,99153.00
2018-11-01T11:02:59.782Z,99151.00
2018-11-01T11:05:28.857Z,99149.00
2018-11-01T11:07:58.552Z,99146.00
2018-11-01T11:10:28.113Z,99139.00
2018-11-01T11:12:57.396Z,99136.00
2018-11-01T11:15:26.799Z,99127.00
2018-11-01T11:17:56.004Z,99128.00
2018-11-01T11:20:25.543Z,99127.00
2018-11-01T11:22:54.909Z,99121.00
2018-11-01T11:25:25.345Z,99125.00
2018-11-01T11:27:55.267Z,99121.00
2018-11-01T11:30:24.956Z,99119.00
2018-11-01T11:32:53.895Z,99122.00
2018-11-01T11:35:22.973Z,99119.00
2018-11-01T11:37:52.474Z,99120.00
2018-11-01T11:40:22.127Z,99121.00
2018-11-01T11:42:51.607Z,99122.00
2018-11-01T11:45:21.749Z,99121.00
2018-11-01T11:50:27.654Z,99117.00
2018-11-01T11:52:57.460Z,99120.00
2018-11-01T11:55:27.211Z,99118.00
2018-11-01T11:57:56.858Z,99120.00
2018-11-01T12:00:27.496Z,99115.00
2018-11-01T12:02:57.004Z,99127.00
2018-11-01T12:05:26.694Z,99126.00
2018-11-01T12:07:56.154Z,99129.00
2018-11-01T12:10:25.544Z,99128.00
2018-11-01T12:12:54.911Z,99134.00
2018-11-01T12:15:24.112Z,99134.00
2018-11-01T12:17:53.299Z,99133.00
2018-11-01T12:20:22.727Z,99134.00
2018-11-01T12:22:52.117Z,99133.00
2018-11-01T12:25:22.165Z,99130.00
2018-11-01T12:27:51.954Z,99138.00
2018-11-01T12:30:21.203Z,99139.00
2018-11-01T12:32:50.903Z,99137.00
2018-11-01T12:35:20.844Z,99136.00
2018-11-01T12:37:50.417Z,99135.00
2018-11-01T12:40:20.232Z,99135.00
2018-11-01T12:42:50.150Z,99135.00
2018-11-01T12:45:19.900Z,99140.00
2018-11-01T12:47:49.932Z,99145.00
2018-11-01T12:50:19.018Z,99148.00
2018-11-01T12:52:48.895Z,99147.00
2018-11-01T12:55:17.974Z,99152.00
2018-11-01T12:57:47.526Z,99152.00
2018-11-01T13:00:17.361Z,99154.00
2018-11-01T13:02:47.019Z,99156.00
2018-11-01T13:05:16.434Z,99162.00
2018-11-01T13:07:45.531Z,99160.00
2018-11-01T13:10:14.565Z,99166.00
2018-11-01T13:12:43.626Z,99163.00
2018-11-01T13:15:13.392Z,99161.00
2018-11-01T13:17:43.319Z,99158.00
2018-11-01T13:20:13.442Z,99158.00
2018-11-01T13:22:43.208Z,99162.00
2018-11-01T13:25:13.161Z,99160.00
2018-11-01T13:27:42.490Z,99156.00
2018-11-01T13:30:14.618Z,99160.00
2018-11-01T13:32:45.460Z,99155.00
2018-11-01T13:35:16.035Z,99159.00
2018-11-01T13:37:45.170Z,99159.00
2018-11-01T13:40:15.649Z,99159.00
2018-11-01T13:42:44.706Z,99151.00
2018-11-01T13:45:13.897Z,99158.00
2018-11-01T13:47:43.634Z,99155.00
2018-11-01T13:50:13.409Z,99153.00
2018-11-01T13:52:42.624Z,99152.00
2018-11-01T13:55:12.773Z,99151.00
2018-11-01T13:57:42.652Z,99149.00
2018-11-01T14:00:13.720Z,99152.00
2018-11-01T14:02:43.517Z,99148.00
2018-11-01T14:05:15.861Z,99142.00
2018-11-01T14:07:45.574Z,99150.00
2018-11-01T14:10:16.316Z,99148.00
2018-11-01T14:12:46.107Z,99147.00
2018-11-01T14:15:15.780Z,99156.00
2018-11-01T14:17:45.051Z,99148.00
2018-11-01T14:20:14.973Z,99145.00
2018-11-01T14:22:44.262Z,99150.00
2018-11-01T14:25:14.198Z,99153.00
2018-11-01T14:27:44.091Z,99151.00
2018-11-01T14:30:15.216Z,99151.00
2018-11-01T14:32:44.635Z,99150.00
2018-11-01T14:35:13.951Z,99152.00
2018-11-01T14:37:43.441Z,99155.00
2018-11-01T14:40:13.992Z,99152.00
2018-11-01T14:42:43.653Z,99142.00
2018-11-01T14:45:13.241Z,99142.00
2018-11-01T14:47:42.971Z,99145.00
2018-11-01T14:50:12.711Z,99130.00
2018-11-01T14:52:43.955Z,99139.00
2018-11-01T14:55:13.470Z,99129.00
2018-11-01T14:57:43.858Z,99141.00
2018-11-01T15:00:12.865Z,99143.00
2018-11-01T15:02:42.770Z,99146.00
2018-11-01T15:05:12.305Z,99137.00
2018-11-01T15:07:42.037Z,99130.00
2018-11-01T15:10:13.699Z,99128.00
2018-11-01T15:12:44.460Z,99121.00
2018-11-01T15:15:13.975Z,99117.00
2018-11-01T15:17:43.522Z,99114.00
2018-11-01T15:20:13.667Z,99105.00
2018-11-01T15:22:43.519Z,99104.00
2018-11-01T15:25:13.164Z,99108.00
2018-11-01T15:27:42.972Z,99106.00
2018-11-01T15:30:15.023Z,99110.00
2018-11-01T15:32:44.998Z,99098.00
2018-11-01T15:35:14.422Z,99093.00
2018-11-01T15:37:44.240Z,99089.00
2018-11-01T15:40:14.168Z,99079.00
2018-11-01T15:42:44.137Z,99074.00
2018-11-01T15:45:17.019Z,99078.00
2018-11-01T15:47:46.828Z,99068.00
2018-11-01T15:50:16.603Z,99065.00
2018-11-01T15:52:45.914Z,99079.00
2018-11-01T15:55:15.347Z,99083.00
2018-11-01T15:57:44.883Z,99091.00
2018-11-01T16:00:15.352Z,99094.00
2018-11-01T16:02:45.656Z,99089.00
2018-11-01T16:05:15.624Z,99086.00
2018-11-01T16:07:45.703Z,99087.00
2018-11-01T16:10:15.349Z,99089.00
2018-11-01T16:12:44.659Z,99081.00
2018-11-01T16:15:16.485Z,99094.00
2018-11-01T16:17:47.319Z,99100.00
2018-11-01T16:20:16.912Z,99105.00
2018-11-01T16:22:46.034Z,99100.00
2018-11-01T16:25:15.245Z,99107.00
2018-11-01T16:27:44.640Z,99103.00
2018-11-01T16:30:14.298Z,99103.00
2018-11-01T16:32:43.796Z,99113.00
2018-11-01T16:35:13.386Z,99124.00
2018-11-01T16:37:42.826Z,99129.00
2018-11-01T16:40:13.020Z,99129.00
2018-11-01T16:42:42.438Z,99139.00
2018-11-01T16:45:15.450Z,99136.00
2018-11-01T16:47:45.080Z,99138.00
2018-11-01T16:50:14.297Z,99140.00
2018-11-01T16:52:43.736Z,99142.00
2018-11-01T16:55:12.909Z,99147.00
2018-11-01T16:57:42.128Z,99152.00
2018-11-01T17:00:13.212Z,99151.00
2018-11-01T17:02:42.527Z,99155.00
2018-11-01T17:05:12.197Z,99156.00
2018-11-01T17:07:41.524Z,99161.00
2018-11-01T17:10:12.214Z,99157.00
2018-11-01T17:12:41.237Z,99152.00
2018-11-01T17:15:13.750Z,99147.00
2018-11-01T17:17:43.323Z,99130.00
2018-11-01T17:20:12.422Z,99126.00
2018-11-01T17:22:42.131Z,99129.00
2018-11-01T17:25:11.484Z,99137.00
2018-11-01T17:27:40.627Z,99147.00
2018-11-01T17:30:10.844Z,99150.00
2018-11-01T17:32:45.269Z,99155.00
2018-11-01T17:35:14.892Z,99151.00
2018-11-01T17:37:44.256Z,99152.00
2018-11-01T17:40:13.517Z,99151.00
2018-11-01T17:42:43.437Z,99152.00
2018-11-01T17:45:12.651Z,99145.00
2018-11-01T17:47:42.246Z,99150.00
2018-11-01T17:50:13.525Z,99153.00
2018-11-01T17:52:43.268Z,99155.00
2018-11-01T17:55:12.711Z,99162.00
2018-11-01T17:57:42.205Z,99167.00
2018-11-01T18:00:13.988Z,99167.00
2018-11-01T18:02:43.513Z,99171.00
2018-11-01T18:05:13.092Z,99169.00
2018-11-01T18:07:42.984Z,99170.00
2018-11-01T18:10:13.402Z,99168.00
2018-11-01T18:12:42.591Z,99165.00
2018-11-01T18:15:11.837Z,99166.00
2018-11-01T18:17:40.909Z,99174.00
2018-11-01T18:20:11.652Z,99172.00
2018-11-01T18:22:40.920Z,99169.00
2018-11-01T18:25:12.023Z,99172.00
2018-11-01T18:27:41.546Z,99175.00
2018-11-01T18:30:13.344Z,99182.00
2018-11-01T18:32:43.281Z,99170.00
2018-11-01T18:35:12.376Z,99174.00
2018-11-01T18:37:42.254Z,99174.00
2018-11-01T18:40:14.699Z,99169.00
2018-11-01T18:42:43.874Z,99173.00
2018-11-01T18:45:14.267Z,99171.00
2018-11-01T18:47:43.981Z,99170.00
2018-11-01T18:50:14.706Z,99171.00
2018-11-01T18:52:43.966Z,99184.00
2018-11-01T18:55:13.483Z,99177.00
2018-11-01T18:57:42.749Z,99176.00
2018-11-01T19:00:14.363Z,99177.00
2018-11-01T19:02:43.668Z,99183.00
2018-11-01T19:05:13.335Z,99189.00
2018-11-01T19:07:42.884Z,99180.00
2018-11-01T19:10:14.465Z,99187.00
2018-11-01T19:12:43.841Z,99186.00
2018-11-01T19:15:13.957Z,99194.00
2018-11-01T19:17:43.386Z,99189.00
2018-11-01T19:20:13.645Z,99187.00
2018-11-01T19:22:43.104Z,99184.00
2018-11-01T19:25:12.904Z,99185.00
2018-11-01T19:27:42.044Z,99189.00
2018-11-01T19:30:12.912Z,99196.00
2018-11-01T19:32:42.868Z,99187.00
2018-11-01T19:35:13.244Z,99192.00
2018-11-01T19:37:42.416Z,99187.00
2018-11-01T19:40:14.424Z,99192.00
2018-11-01T19:42:44.057Z,99202.00
2018-11-01T19:45:13.393Z,99200.00
2018-11-01T19:47:42.615Z,99202.00
2018-11-01T19:50:14.045Z,99214.00
2018-11-01T19:52:43.530Z,99214.00
2018-11-01T19:55:13.527Z,99209.00
2018-11-01T19:57:43.262Z,99213.00
2018-11-01T20:00:15.077Z,99220.00
2018-11-01T20:02:44.949Z,99217.00
2018-11-01T20:05:14.396Z,99217.00
2018-11-01T20:07:44.057Z,99228.00
2018-11-01T20:10:14.252Z,99227.00
2018-11-01T20:12:43.849Z,99231.00
2018-11-01T20:15:13.135Z,99227.00
2018-11-01T20:17:42.348Z,99230.00
2018-11-01T20:20:14.198Z,99229.00
2018-11-01T20:22:44.342Z,99224.00
2018-11-01T20:25:13.435Z,99232.00
2018-11-01T20:27:42.645Z,99222.00
2018-11-01T20:30:14.749Z,99228.00
2018-11-01T20:32:44.386Z,99239.00
2018-11-01T20:35:14.563Z,99246.00
2018-11-01T20:37:44.201Z,99242.00
2018-11-01T20:40:13.808Z,99246.00
2018-11-01T20:42:43.628Z,99255.00
2018-11-01T20:45:13.390Z,99267.00
2018-11-01T20:47:42.694Z,99253.00
2018-11-01T20:50:12.830Z,99273.00
2018-11-01T20:52:42.074Z,99264.00
2018-11-01T20:55:11.174Z,99280.00
2018-11-01T20:57:43.082Z,99283.00
2018-11-01T21:00:13.977Z,99281.00
2018-11-01T21:02:43.465Z,99279.00
2018-11-01T21:05:12.749Z,99288.00
2018-11-01T21:07:41.823Z,99287.00
2018-11-01T21:10:11.730Z,99299.00
2018-11-01T21:12:41.111Z,99292.00
2018-11-01T21:15:13.349Z,99303.00
2018-11-01T21:17:43.010Z,99313.00
2018-11-01T21:20:12.996Z,99306.00
2018-11-01T21:22:42.289Z,99316.00
2018-11-01T21:25:13.650Z,99316.00
2018-11-01T21:27:42.944Z,99321.00
2018-11-01T21:30:12.498Z,99320.00
2018-11-01T21:32:41.734Z,99322.00
2018-11-01T21:35:12.265Z,99330.00
2018-11-01T21:37:42.780Z,99325.00
2018-11-01T21:40:13.042Z,99328.00
2018-11-01T21:42:42.708Z,99328.00
2018-11-01T21:45:13.660Z,99327.00
2018-11-01T21:47:43.847Z,99332.00
2018-11-01T21:50:13.654Z,99333.00
2018-11-01T21:52:43.748Z,99344.00
2018-11-01T21:55:13.520Z,99348.00
2018-11-01T21:57:45.568Z,99346.00
2018-11-01T22:00:15.053Z,99349.00
2018-11-01T22:02:44.844Z,99353.00
2018-11-01T22:05:14.074Z,99353.00
2018-11-01T22:07:43.402Z,99362.00
2018-11-01T22:10:12.609Z,99361.00
2018-11-01T22:12:41.824Z,99365.00
2018-11-01T22:15:12.283Z,99366.00
2018-11-01T22:17:42.247Z,99370.00
2018-11-01T22:20:12.487Z,99379.00
2018-11-01T22:22:42.269Z,99377.00
2018-11-01T22:25:11.839Z,99380.00
2018-11-01T22:27:41.241Z,99378.00
2018-11-01T22:30:11.781Z,99379.00
2018-11-01T22:32:42.373Z,99378.00
2018-11-01T22:35:12.346Z,99380.00
2018-11-01T22:37:42.687Z,99385.00
2018-11-01T22:40:12.311Z,99385.00
2018-11-01T22:42:41.543Z,99385.00
2018-11-01T22:45:11.544Z,99394.00
2018-11-01T22:47:42.359Z,99395.00
2018-11-01T22:50:11.826Z,99391.00
2018-11-01T22:52:41.553Z,99391.00
2018-11-01T22:55:12.192Z,99399.00
2018-11-01T22:57:41.644Z,99398.00
2018-11-01T23:00:15.260Z,99401.00
2018-11-01T23:02:46.024Z,99401.00
2018-11-01T23:05:16.485Z,99403.00
2018-11-01T23:07:46.446Z,99410.00
2018-11-01T23:10:16.195Z,99411.00
2018-11-01T23:12:45.713Z,99410.00
2018-11-01T23:15:16.152Z,99414.00
2018-11-01T23:17:45.220Z,99421.00
2018-11-01T23:20:14.800Z,99423.00
2018-11-01T23:22:45.682Z,99427.00
2018-11-01T23:25:16.241Z,99426.00
2018-11-01T23:27:46.158Z,99432.00
2018-11-01T23:30:15.817Z,99431.00
2018-11-01T23:32:45.094Z,99435.00
2018-11-01T23:35:14.609Z,99436.00
2018-11-01T23:37:49.118Z,99439.00
2018-11-01T23:40:23.989Z,99439.00
2018-11-01T23:42:58.652Z,99442.00
2018-11-01T23:45:33.368Z,99450.00
2018-11-01T23:48:01.877Z,99439.00
2018-11-01T23:51:04.755Z,99452.00
2018-11-01T23:53:36.402Z,99448.00
2018-11-01T23:56:05.744Z,99446.00
2018-11-01T23:58:35.060Z,99443.00
